Terminal Aerodrome Forecast
Issued by NWS Charleston, WV

Home | Current Version | Previous Version | Text Only | Print | Product List | Glossary On
Versions: 1 2 3 4 5 6 7 8 9 10 11 12 13 14 15 16
000
FTUS41 KRLX 271700
TAFEKN
TAF
KEKN 271731Z 2718/2818 00000KT P6SM SKC
     FM280600 25006KT P6SM OVC020
     FM281000 25007KT 4SM -RA BR OVC003
     FM281200 25006KT 2SM -RA BR OVC015
     FM281400 25005KT 1 1/2SM -RA BR OVC008=

USA.gov is the U.S. government's official web portal to all federal, state and local government web resources and services.